Time;durP1;ratioP1;P1;durP2;ratioP2;P2;SDS_P1;SDS_P2;PMS_P1;PMS_P2;Temp;Humidity;BMP_temperature;BMP_pressure;BME280_temperature;BME280_humidity;BME280_pressure;Samples;Min_cycle;Max_cycle;Signal;HPM_P1;HPM_P2
2022/08/22 00:00:43;;;;;;;6.05;5.00;;;;;;;18.05;100.00;63861.28;4896451;29;20190;-81
2022/08/22 00:03:19;;;;;;;5.22;4.93;;;;;;;18.08;100.00;63864.94;4896180;29;20226;-81
2022/08/22 00:05:58;;;;;;;7.70;5.25;;;;;;;18.10;100.00;63872.16;4897317;29;20242;-80
2022/08/22 00:08:31;;;;;;;5.15;4.75;;;;;;;18.27;100.00;63892.44;4896887;29;20218;-80
2022/08/22 00:11:12;;;;;;;6.75;4.97;;;;;;;18.25;100.00;63889.84;4900611;29;20251;-81
2022/08/22 00:13:45;;;;;;;5.72;5.22;;;;;;;18.14;100.00;63873.22;4899798;29;20396;-81
2022/08/22 00:16:18;;;;;;;5.85;5.35;;;;;;;18.22;100.00;63884.16;4898766;29;20223;-80
2022/08/22 00:18:51;;;;;;;5.13;4.72;;;;;;;18.28;100.00;63887.81;4900954;29;20202;-81
2022/08/22 00:21:25;;;;;;;5.20;4.75;;;;;;;18.19;100.00;63875.84;4899831;29;20290;-81
2022/08/22 00:23:59;;;;;;;6.30;4.65;;;;;;;18.28;100.00;63892.97;4899834;29;20538;-81
2022/08/22 00:26:34;;;;;;;5.47;4.85;;;;;;;18.25;100.00;63889.84;4899751;29;20245;-81
2022/08/22 00:29:06;;;;;;;6.13;5.18;;;;;;;18.27;100.00;63886.78;4898848;29;20218;-80
2022/08/22 00:31:41;;;;;;;5.25;4.53;;;;;;;18.18;100.00;63877.94;4900095;29;20229;-81
2022/08/22 00:34:14;;;;;;;5.80;5.38;;;;;;;18.22;100.00;63879.00;4899821;29;20222;-80
2022/08/22 00:36:48;;;;;;;6.65;5.22;;;;;;;18.24;100.00;63884.16;4899887;29;20247;-80
2022/08/22 00:39:21;;;;;;;6.43;5.28;;;;;;;18.08;100.00;63870.09;4899874;29;20202;-81
2022/08/22 00:42:09;;;;;;;7.20;5.90;;;;;;;18.03;100.00;63864.88;4897458;29;20218;-81
2022/08/22 00:44:59;;;;;;;7.10;6.43;;;;;;;18.10;100.00;63869.56;4900311;29;20479;-81
2022/08/22 00:48:05;;;;;;;9.18;7.30;;;;;;;18.04;100.00;63863.34;4900129;29;20219;-81
2022/08/22 00:51:06;;;;;;;8.77;7.60;;;;;;;18.04;100.00;63863.34;4894255;29;20199;-80
2022/08/22 00:53:53;;;;;;;10.23;8.70;;;;;;;18.09;100.00;63870.59;4898361;29;20213;-80
2022/08/22 00:56:52;;;;;;;13.10;8.27;;;;;;;18.09;100.00;63870.59;4898672;29;20246;-80
2022/08/22 00:59:52;;;;;;;11.20;8.43;;;;;;;18.16;100.00;63875.31;4899143;29;20206;-80
2022/08/22 01:02:36;;;;;;;11.77;8.90;;;;;;;18.15;100.00;63874.78;4897469;29;20227;-81
2022/08/22 01:05:19;;;;;;;11.40;8.57;;;;;;;18.14;100.00;63875.81;4899296;29;20287;-80
2022/08/22 01:08:09;;;;;;;10.25;9.02;;;;;;;18.18;100.00;63880.50;4910771;29;20197;-81
2022/08/22 01:10:55;;;;;;;10.02;8.32;;;;;;;18.22;100.00;63882.06;4916648;29;20190;-81
2022/08/22 01:13:39;;;;;;;11.80;7.93;;;;;;;18.34;100.00;63891.50;4918425;29;20221;-80
2022/08/22 01:16:27;;;;;;;9.73;7.72;;;;;;;18.28;100.00;63890.38;4918927;29;20261;-81
2022/08/22 01:19:28;;;;;;;14.73;8.60;;;;;;;18.28;100.00;63885.22;4917626;29;20258;-81
2022/08/22 01:22:25;;;;;;;11.98;7.90;;;;;;;18.19;100.00;63881.00;4918676;29;20240;-81
2022/08/22 01:25:28;;;;;;;8.98;8.07;;;;;;;18.27;100.00;63882.13;4916700;29;20233;-82
2022/08/22 01:28:35;;;;;;;10.10;7.40;;;;;;;18.34;100.00;63894.06;4919142;29;20201;-80
2022/08/22 01:31:49;;;;;;;10.65;7.63;;;;;;;18.33;100.00;63893.53;4915866;29;20222;-81
2022/08/22 01:34:51;;;;;;;11.80;6.07;;;;;;;18.34;100.00;63897.16;4823363;29;20200;-80
2022/08/22 01:37:51;;;;;;;8.95;5.70;;;;;;;18.37;100.00;63899.78;4916258;29;20222;-81
2022/08/22 01:40:51;;;;;;;7.32;5.57;;;;;;;18.35;100.00;63897.69;4916889;29;20202;-80
2022/08/22 01:43:28;;;;;;;10.45;4.50;;;;;;;18.29;100.00;63891.94;4917252;29;20227;-81
2022/08/22 01:46:22;;;;;;;6.20;4.63;;;;;;;18.31;100.00;63893.50;4916766;29;20257;-81
2022/08/22 01:48:56;;;;;;;5.75;5.25;;;;;;;18.32;100.00;63892.50;4916506;29;20234;-81
2022/08/22 01:51:30;;;;;;;7.30;5.05;;;;;;;18.31;100.00;63888.34;4917685;29;20218;-81
2022/08/22 01:54:04;;;;;;;6.57;4.32;;;;;;;18.24;100.00;63886.75;4916854;29;20262;-80
2022/08/22 01:56:36;;;;;;;5.43;4.13;;;;;;;18.11;100.00;63867.53;4920103;29;20222;-80
2022/08/22 01:59:07;;;;;;;6.93;4.72;;;;;;;17.96;100.00;63860.16;4917458;29;20194;-80
2022/08/22 02:01:53;;;;;;;7.18;4.63;;;;;;;18.19;100.00;63881.53;4916010;29;20222;-80
2022/08/22 02:04:37;;;;;;;5.82;5.32;;;;;;;18.19;100.00;63875.84;4916015;29;20202;-81
2022/08/22 02:07:17;;;;;;;5.50;5.03;;;;;;;18.05;100.00;63866.94;4917138;29;20241;-80
2022/08/22 02:09:53;;;;;;;6.53;4.90;;;;;;;18.05;100.00;63861.28;4917420;29;20240;-80
2022/08/22 02:12:32;;;;;;;5.65;5.03;;;;;;;18.02;100.00;63861.25;4916809;29;20221;-80
2022/08/22 02:15:12;;;;;;;7.32;5.70;;;;;;;18.00;100.00;63863.81;4916068;29;20198;-81
2022/08/22 02:17:55;;;;;;;7.80;5.10;;;;;;;17.97;100.00;63858.63;4917852;29;20218;-82
2022/08/22 02:20:27;;;;;;;6.13;5.57;;;;;;;17.99;100.00;63855.56;4916279;29;20215;-81
2022/08/22 02:23:01;;;;;;;9.43;6.18;;;;;;;17.86;100.00;63847.16;4916833;29;20202;-80
2022/08/22 02:25:32;;;;;;;7.68;5.63;;;;;;;17.89;100.00;63849.75;4916559;29;20254;-81
2022/08/22 02:28:08;;;;;;;7.72;5.47;;;;;;;17.84;100.00;63839.94;4916519;29;20482;-80
2022/08/22 02:30:50;;;;;;;6.28;5.43;;;;;;;17.92;100.00;63855.47;4915285;29;20194;-80
2022/08/22 02:33:29;;;;;;;7.43;5.20;;;;;;;17.89;100.00;63847.19;4914973;29;20237;-81
2022/08/22 02:36:03;;;;;;;5.57;4.47;;;;;;;17.79;100.00;63836.78;4916728;29;20225;-79
2022/08/22 02:38:39;;;;;;;7.05;5.88;;;;;;;17.63;100.00;63820.63;4915284;29;20202;-82
2022/08/22 02:41:12;;;;;;;5.88;5.43;;;;;;;17.73;100.00;63833.63;4916176;29;20244;-80
2022/08/22 02:44:01;;;;;;;10.05;6.32;;;;;;;17.61;100.00;63820.59;4916130;29;20202;-80
2022/08/22 02:46:40;;;;;;;6.82;6.05;;;;;;;17.63;100.00;63820.63;4915532;29;20244;-80
2022/08/22 02:49:14;;;;;;;7.18;5.50;;;;;;;17.65;100.00;63822.72;4915555;29;20208;-80
2022/08/22 02:51:54;;;;;;;7.45;6.78;;;;;;;17.54;100.00;63810.72;4916173;29;20246;-80
2022/08/22 02:54:27;;;;;;;12.02;5.45;;;;;;;17.58;100.00;63818.00;4917621;29;20229;-79
2022/08/22 02:57:00;;;;;;;7.28;5.57;;;;;;;17.54;100.00;63808.69;4916469;29;20407;-81
2022/08/22 02:59:34;;;;;;;7.75;5.95;;;;;;;17.44;100.00;63810.59;4916730;29;20198;-80
2022/08/22 03:02:32;;;;;;;5.75;5.28;;;;;;;17.37;100.00;63796.13;4914627;29;20222;-80
2022/08/22 03:05:02;;;;;;;9.50;6.13;;;;;;;17.38;100.00;63791.50;4915580;29;20224;-80
2022/08/22 03:07:44;;;;;;;6.53;5.63;;;;;;;17.33;100.00;63792.47;4906438;29;20227;-80
2022/08/22 03:10:21;;;;;;;6.22;5.40;;;;;;;17.28;100.00;63789.84;4896727;29;20198;-81
2022/08/22 03:12:57;;;;;;;8.85;6.00;;;;;;;17.24;100.00;63783.09;4896403;29;20202;-80
2022/08/22 03:15:32;;;;;;;8.23;6.28;;;;;;;17.25;100.00;63786.72;4897290;29;20199;-80
2022/08/22 03:18:06;;;;;;;8.02;7.20;;;;;;;17.20;100.00;63778.94;4896264;29;20200;-80
2022/08/22 03:20:49;;;;;;;9.73;6.18;;;;;;;17.22;100.00;63781.00;4895489;29;20203;-82
2022/08/22 03:23:26;;;;;;;9.85;7.82;;;;;;;17.19;100.00;63777.91;4895198;29;20262;-81
2022/08/22 03:26:01;;;;;;;7.53;6.65;;;;;;;17.13;100.00;63771.66;4896263;29;20543;-80
2022/08/22 03:28:37;;;;;;;6.80;6.20;;;;;;;17.08;100.00;63766.44;4896618;29;20222;-81
2022/08/22 03:31:12;;;;;;;6.25;5.45;;;;;;;17.15;100.00;63773.22;4897283;29;20222;-81
2022/08/22 03:33:39;;;;;;;7.55;6.80;;;;;;;16.94;100.00;63749.31;4896723;29;20293;-80
2022/08/22 03:36:12;;;;;;;9.95;8.45;;;;;;;17.12;100.00;63768.03;4896783;29;20260;-81
2022/08/22 03:39:02;;;;;;;12.15;8.50;;;;;;;17.14;100.00;63772.16;4895551;29;20219;-80
2022/08/22 03:42:03;;;;;;;14.43;8.85;;;;;;;17.09;100.00;63764.91;4896724;29;20217;-81
2022/08/22 03:45:00;;;;;;;13.35;7.40;;;;;;;17.10;100.00;63765.94;4896354;29;20230;-81
2022/08/22 03:48:01;;;;;;;11.18;7.18;;;;;;;17.01;100.00;63756.06;4900033;29;20435;-80
2022/08/22 03:51:00;;;;;;;9.30;6.85;;;;;;;17.08;100.00;63765.94;4873086;29;20218;-81
2022/08/22 03:53:44;;;;;;;9.32;8.43;;;;;;;17.07;100.00;63767.97;4889274;29;20250;-81
2022/08/22 03:56:38;;;;;;;10.07;8.30;;;;;;;17.04;100.00;63757.13;4899351;29;20281;-80
2022/08/22 03:59:30;;;;;;;9.15;8.13;;;;;;;17.06;100.00;63761.81;4900570;29;20230;-81
2022/08/22 04:02:29;;;;;;;10.85;8.10;;;;;;;17.08;100.00;63763.34;4900901;29;20507;-81
2022/08/22 04:05:49;;;;;;;11.82;8.10;;;;;;;16.98;100.00;63752.94;4899624;29;20265;-80
2022/08/22 04:08:52;;;;;;;8.70;7.82;;;;;;;17.11;100.00;63767.00;4899622;29;20432;-81
2022/08/22 04:11:45;;;;;;;10.15;6.80;;;;;;;17.13;100.00;63771.13;4900602;29;20250;-80
2022/08/22 04:14:47;;;;;;;8.20;5.80;;;;;;;17.14;100.00;63769.59;4895119;29;20262;-81
2022/08/22 04:17:48;;;;;;;7.05;6.32;;;;;;;17.16;100.00;63771.69;4900014;29;20281;-80
2022/08/22 04:20:31;;;;;;;6.70;6.00;;;;;;;17.24;100.00;63785.16;4899775;29;20232;-82
2022/08/22 04:23:15;;;;;;;7.65;5.70;;;;;;;17.20;100.00;63778.41;4899837;29;20255;-81
2022/08/22 04:25:47;;;;;;;6.40;5.80;;;;;;;17.29;100.00;63788.31;4900556;29;20223;-80
2022/08/22 04:28:22;;;;;;;6.78;6.10;;;;;;;17.31;100.00;63789.84;4900880;29;20247;-81
2022/08/22 04:30:57;;;;;;;7.25;6.10;;;;;;;17.44;100.00;63800.31;4900053;29;20214;-80
2022/08/22 04:33:30;;;;;;;6.10;5.50;;;;;;;17.46;100.00;63802.94;4900488;29;20227;-81
2022/08/22 04:36:03;;;;;;;7.57;5.18;;;;;;;17.48;100.00;63807.06;4899334;29;20238;-80
2022/08/22 04:38:36;;;;;;;15.15;7.32;;;;;;;17.64;100.00;63824.25;4900251;29;20380;-81
2022/08/22 04:41:09;;;;;;;10.52;8.55;;;;;;;17.83;100.00;63840.94;4899241;29;20226;-80
2022/08/22 04:43:43;;;;;;;11.35;9.40;;;;;;;17.72;100.00;63829.50;4900204;29;20202;-80
2022/08/22 04:46:20;;;;;;;15.75;9.93;;;;;;;17.73;100.00;63831.03;4899111;29;20498;-82
2022/08/22 04:48:57;;;;;;;12.00;9.75;;;;;;;17.92;100.00;63855.47;4902186;29;20203;-81
2022/08/22 04:51:30;;;;;;;12.77;9.75;;;;;;;18.00;100.00;63861.22;4898924;29;20452;-81
2022/08/22 04:54:13;;;;;;;13.15;8.82;;;;;;;18.12;100.00;63876.31;4898301;29;20195;-81
2022/08/22 04:56:52;;;;;;;12.38;9.25;;;;;;;18.12;100.00;63876.31;4898785;29;20229;-80
2022/08/22 04:59:20;;;;;;;13.93;9.75;;;;;;;18.27;100.00;63886.78;4901135;29;20199;-81
2022/08/22 05:01:54;;;;;;;12.05;9.45;;;;;;;18.22;100.00;63882.06;4899503;29;20211;-79
2022/08/22 05:04:26;;;;;;;14.10;10.77;;;;;;;17.99;100.00;63855.03;4896958;29;20202;-80
2022/08/22 05:06:59;;;;;;;12.65;10.18;;;;;;;18.10;100.00;63874.22;4903333;29;20265;-80
2022/08/22 05:09:31;;;;;;;15.23;10.25;;;;;;;18.26;100.00;63891.41;4918429;29;20202;-79
2022/08/22 05:12:06;;;;;;;12.98;10.77;;;;;;;18.06;100.00;63862.31;4917793;29;20430;-79
2022/08/22 05:14:39;;;;;;;14.75;11.10;;;;;;;18.01;100.00;63862.78;4918827;29;20198;-80
2022/08/22 05:17:12;;;;;;;15.93;11.60;;;;;;;18.15;100.00;63874.28;4917202;29;20218;-80
2022/08/22 05:19:44;;;;;;;12.80;9.65;;;;;;;18.03;100.00;63864.34;4916379;29;20280;-81
2022/08/22 05:22:15;;;;;;;12.32;9.35;;;;;;;18.31;100.00;63891.47;4916277;29;20535;-81
2022/08/22 05:24:46;;;;;;;14.13;11.60;;;;;;;18.57;100.00;63915.47;4917048;29;20210;-80
2022/08/22 05:27:21;;;;;;;15.80;10.38;;;;;;;18.71;100.00;63934.69;4918381;29;20540;-79
2022/08/22 05:29:52;;;;;;;19.95;11.07;;;;;;;18.19;100.00;63881.00;4915874;29;20206;-80
2022/08/22 05:32:26;;;;;;;13.18;11.13;;;;;;;18.39;100.00;63901.84;4915555;29;20222;-80
2022/08/22 05:34:58;;;;;;;15.60;11.50;;;;;;;18.58;100.00;63918.56;4915312;29;20212;-81
2022/08/22 05:37:39;;;;;;;15.23;11.70;;;;;;;18.62;100.00;63925.34;4916196;29;20260;-82
2022/08/22 05:40:25;;;;;;;13.35;10.88;;;;;;;18.71;100.00;63935.22;4921355;29;20187;-80
2022/08/22 05:45:29;;;;;;;15.90;10.70;;;;;;;18.61;100.00;63921.69;4945712;23;20264;-81
2022/08/22 05:48:03;;;;;;;15.57;11.10;;;;;;;19.06;100.00;63971.19;4916400;29;20300;-80
2022/08/22 05:50:35;;;;;;;13.32;10.80;;;;;;;19.22;100.00;63987.88;4917191;29;20191;-80
2022/08/22 05:53:08;;;;;;;15.90;10.50;;;;;;;19.13;100.00;63975.91;4917067;29;20209;-81
2022/08/22 05:55:46;;;;;;;14.70;11.30;;;;;;;18.67;100.00;63927.97;4917808;29;20222;-79
2022/08/22 05:58:31;;;;;;;19.08;11.10;;;;;;;18.49;100.00;63917.47;4916131;29;20403;-81
2022/08/22 06:01:04;;;;;;;13.65;10.65;;;;;;;18.81;100.00;63950.28;4915345;29;20225;-81
2022/08/22 06:03:39;;;;;;;15.70;11.63;;;;;;;18.71;100.00;63934.69;4915581;29;20210;-80
2022/08/22 06:06:15;;;;;;;16.67;11.32;;;;;;;19.01;100.00;63965.97;4914400;29;20241;-80
2022/08/22 06:08:47;;;;;;;14.82;10.57;;;;;;;19.08;100.00;63973.81;4898348;29;20234;-81
2022/08/22 06:11:20;;;;;;;15.32;10.88;;;;;;;19.07;100.00;63972.75;4899116;29;20251;-80
2022/08/22 06:13:56;;;;;;;13.02;11.18;;;;;;;19.47;100.00;64011.38;4896329;29;20203;-80
2022/08/22 06:16:32;;;;;;;14.95;10.70;;;;;;;19.63;100.00;64033.22;4895814;29;20339;-81
2022/08/22 06:19:04;;;;;;;16.13;10.95;;;;;;;19.81;100.00;64049.41;4895914;29;20209;-80
2022/08/22 06:21:36;;;;;;;10.85;9.15;;;;;;;20.09;100.00;64075.53;4896559;29;20223;-79
2022/08/22 06:24:07;;;;;;;15.95;10.48;;;;;;;20.02;100.00;64071.31;4895732;29;20203;-81
2022/08/22 06:26:38;;;;;;;16.10;10.32;;;;;;;20.30;100.00;64097.47;4895948;29;20235;-81
2022/08/22 06:29:08;;;;;;;11.52;9.00;;;;;;;20.24;100.00;64094.31;4898937;29;20320;-81
2022/08/22 06:31:43;;;;;;;15.88;10.40;;;;;;;19.95;100.00;64060.94;4894844;29;20298;-80
2022/08/22 06:34:21;;;;;;;12.63;10.05;;;;;;;20.29;100.00;64099.00;4897877;29;20210;-80
2022/08/22 06:36:51;;;;;;;13.55;8.77;;;;;;;20.16;100.00;64088.56;4898415;29;20531;-81
2022/08/22 06:39:22;;;;;;;10.98;8.98;;;;;;;20.27;100.00;64096.91;4896910;29;20487;-79
2022/08/22 06:41:53;;;;;;;11.32;10.10;;;;;;;20.27;100.00;64094.34;4897932;29;20219;-81
2022/08/22 06:44:23;;;;;;;17.80;9.07;;;;;;;20.15;100.00;64079.72;4897998;29;20217;-80
2022/08/22 06:46:59;;;;;;;10.82;8.07;;;;;;;20.00;100.00;64068.72;4895759;29;20242;-81
2022/08/22 06:49:29;;;;;;;9.77;7.38;;;;;;;20.31;100.00;64096.44;4895931;29;20251;-81
2022/08/22 06:52:01;;;;;;;12.68;7.78;;;;;;;20.43;100.00;64113.63;4895824;29;20255;-80
2022/08/22 06:54:35;;;;;;;9.48;8.57;;;;;;;20.22;100.00;64089.13;4897412;29;20300;-79
2022/08/22 06:57:05;;;;;;;8.60;7.68;;;;;;;20.27;100.00;64100.03;4896465;29;20456;-81
2022/08/22 06:59:38;;;;;;;11.30;8.13;;;;;;;20.51;100.00;64119.38;4896643;29;20206;-80
2022/08/22 07:02:19;;;;;;;7.55;6.72;;;;;;;20.79;100.00;64148.09;4897338;29;20229;-82
2022/08/22 07:04:51;;;;;;;7.35;5.85;;;;;;;21.01;100.00;64168.47;4897029;29;20203;-80
2022/08/22 07:07:20;;;;;;;7.68;6.55;;;;;;;21.25;100.00;64196.66;4914536;29;20266;-79
2022/08/22 07:09:54;;;;;;;6.43;5.80;;;;;;;21.31;99.32;64207.59;4934216;29;20272;-80
2022/08/22 07:12:26;;;;;;;6.95;5.70;;;;;;;21.16;99.65;64189.84;4934536;29;20225;-80
2022/08/22 07:15:00;;;;;;;7.55;5.93;;;;;;;21.22;99.42;64195.59;4935206;29;20199;-81
2022/08/22 07:17:32;;;;;;;7.18;6.53;;;;;;;21.35;100.00;64212.28;4933509;29;20228;-79
2022/08/22 07:20:10;;;;;;;5.97;5.57;;;;;;;21.13;100.00;64184.13;4935911;29;20269;-79
2022/08/22 07:22:38;;;;;;;8.25;6.18;;;;;;;21.05;100.00;64177.84;4937038;29;20232;-81
2022/08/22 07:25:11;;;;;;;8.13;7.30;;;;;;;21.10;100.00;64188.78;4935073;29;20206;-82
2022/08/22 07:27:58;;;;;;;8.02;7.25;;;;;;;21.81;100.00;64251.53;4935338;29;20237;-80
2022/08/22 07:30:36;;;;;;;9.05;6.88;;;;;;;22.46;95.98;64332.97;4935491;29;20194;-80
2022/08/22 07:33:07;;;;;;;11.80;7.30;;;;;;;22.73;96.70;64356.03;4936680;29;20245;-79
2022/08/22 07:35:41;;;;;;;8.15;6.43;;;;;;;22.64;91.93;64346.63;4934557;29;20197;-80
2022/08/22 07:38:18;;;;;;;8.85;7.15;;;;;;;22.41;94.92;64317.38;4933521;29;20241;-81
2022/08/22 07:40:57;;;;;;;9.77;7.47;;;;;;;22.24;96.26;64297.00;4933910;29;20293;-80
2022/08/22 07:43:29;;;;;;;8.20;7.50;;;;;;;22.45;96.21;64323.63;4935383;29;20237;-80
2022/08/22 07:46:00;;;;;;;9.32;7.55;;;;;;;22.30;95.44;64305.34;4933550;29;20281;-81
2022/08/22 07:48:30;;;;;;;9.48;7.88;;;;;;;22.32;95.84;64310.56;4933562;29;20221;-80
2022/08/22 07:51:04;;;;;;;6.90;6.30;;;;;;;22.46;95.55;64324.66;4934694;29;20292;-80
2022/08/22 07:53:39;;;;;;;9.40;7.25;;;;;;;22.31;95.43;64311.59;4933033;29;20204;-79
2022/08/22 07:56:14;;;;;;;7.43;6.65;;;;;;;22.45;97.74;64318.44;4933388;29;20242;-80
2022/08/22 07:58:43;;;;;;;6.97;6.38;;;;;;;22.74;94.67;64354.47;4934499;29;20192;-80
2022/08/22 08:01:16;;;;;;;8.98;7.13;;;;;;;23.19;90.79;64397.91;4933904;29;20217;-79
2022/08/22 08:03:50;;;;;;;8.35;6.72;;;;;;;23.08;88.87;64388.97;4934695;29;20178;-80
2022/08/22 08:06:22;;;;;;;7.80;6.95;;;;;;;23.11;88.03;64395.25;4933834;29;20217;-81
2022/08/22 08:08:50;;;;;;;7.35;6.70;;;;;;;23.20;88.05;64401.53;4914138;29;20553;-79
2022/08/22 08:11:19;;;;;;;13.38;7.45;;;;;;;23.23;88.46;64405.19;4914821;29;20226;-80
2022/08/22 08:13:50;;;;;;;8.80;7.78;;;;;;;23.37;89.78;64414.13;4915069;29;20218;-81
2022/08/22 08:16:22;;;;;;;8.77;6.97;;;;;;;23.77;86.20;64459.13;4914351;29;20223;-81
2022/08/22 08:18:52;;;;;;;10.63;8.27;;;;;;;24.22;87.19;64510.38;4914696;29;20206;-80
2022/08/22 08:21:30;;;;;;;8.73;7.85;;;;;;;24.56;85.49;64543.38;4914122;29;20573;-83
2022/08/22 08:24:00;;;;;;;9.40;7.13;;;;;;;23.95;87.14;64477.44;4914662;29;20190;-81
2022/08/22 08:26:32;;;;;;;9.10;7.22;;;;;;;23.78;85.23;64465.34;4916536;29;20221;-81
2022/08/22 08:28:59;;;;;;;10.27;7.63;;;;;;;23.62;87.00;64440.81;4914995;29;20249;-80
2022/08/22 08:31:30;;;;;;;9.70;7.90;;;;;;;23.58;89.91;64444.44;4918722;29;20297;-80
2022/08/22 08:34:03;;;;;;;7.90;7.05;;;;;;;23.91;86.71;64473.25;4919485;29;20190;-79
2022/08/22 08:36:50;;;;;;;11.10;7.22;;;;;;;24.10;84.58;64495.75;4919049;29;20419;-81
2022/08/22 08:39:23;;;;;;;8.35;7.43;;;;;;;23.84;86.05;64466.44;4921076;29;20221;-81
2022/08/22 08:42:27;;;;;;;9.30;8.23;;;;;;;24.13;84.27;64501.50;4918809;29;20222;-82
2022/08/22 08:45:39;;;;;;;9.00;8.00;;;;;;;24.51;83.89;64535.53;4919925;29;20218;-81
2022/08/22 08:48:23;;;;;;;9.10;8.18;;;;;;;24.67;80.70;64552.81;4884866;29;20230;-80
2022/08/22 08:51:10;;;;;;;10.32;7.70;;;;;;;24.72;79.12;64560.16;4920063;29;20247;-80
2022/08/22 08:54:13;;;;;;;8.10;7.38;;;;;;;25.09;80.50;64602.03;4919727;29;20202;-81
2022/08/22 08:56:53;;;;;;;8.50;6.75;;;;;;;25.20;76.95;64607.28;4918091;29;20214;-81
2022/08/22 08:59:35;;;;;;;7.90;7.15;;;;;;;25.33;79.37;64624.06;4919271;29;20209;-80
2022/08/22 09:02:25;;;;;;;8.18;7.38;;;;;;;25.48;74.75;64636.66;4920079;29;20229;-80
2022/08/22 09:05:30;;;;;;;8.82;6.72;;;;;;;25.44;75.93;64632.47;4918071;29;20236;-80
2022/08/22 09:08:30;;;;;;;10.77;7.63;;;;;;;25.43;72.11;64634.03;4933361;29;20257;-80
2022/08/22 09:11:39;;;;;;;8.00;7.20;;;;;;;25.46;75.67;64634.56;4918223;29;20221;-81
2022/08/22 09:14:20;;;;;;;8.30;7.50;;;;;;;25.47;72.10;64635.59;4937864;29;20197;-80
2022/08/22 09:17:17;;;;;;;8.38;7.45;;;;;;;25.65;73.87;64657.59;4937475;29;20225;-81
2022/08/22 09:20:16;;;;;;;8.80;7.90;;;;;;;25.71;73.48;64666.50;4936726;29;20208;-80
2022/08/22 09:23:34;;;;;;;14.10;8.85;;;;;;;25.94;76.03;64685.38;4937996;29;20217;-81
2022/08/22 09:26:05;;;;;;;8.13;7.40;;;;;;;26.23;70.93;64712.66;4936956;29;20217;-82
2022/08/22 09:28:40;;;;;;;9.32;7.85;;;;;;;26.34;71.54;64726.81;4936900;29;20243;-81
2022/08/22 09:31:18;;;;;;;11.05;7.93;;;;;;;26.31;69.12;64726.28;4935774;29;20245;-80
2022/08/22 09:33:53;;;;;;;7.85;7.18;;;;;;;26.59;65.78;64758.25;4936462;29;20200;-81
2022/08/22 09:36:24;;;;;;;8.27;7.35;;;;;;;26.23;66.62;64721.00;4935807;29;20248;-82
2022/08/22 09:38:58;;;;;;;8.68;7.97;;;;;;;26.27;69.71;64722.06;4937290;29;20242;-79
2022/08/22 09:41:38;;;;;;;7.35;6.68;;;;;;;26.71;66.98;64767.72;4937100;29;20221;-79
2022/08/22 09:44:25;;;;;;;8.57;7.72;;;;;;;26.92;63.69;64792.34;4936130;29;20271;-80
2022/08/22 09:47:06;;;;;;;7.57;6.75;;;;;;;26.98;61.46;64796.03;4936532;29;20229;-80
2022/08/22 09:49:48;;;;;;;6.78;6.10;;;;;;;27.17;59.83;64818.56;4936964;29;20218;-81
2022/08/22 09:52:28;;;;;;;8.20;7.47;;;;;;;27.18;64.51;64819.63;4937581;29;20222;-80
2022/08/22 09:55:04;;;;;;;12.48;7.55;;;;;;;27.70;63.38;64871.59;4935907;29;20201;-81
2022/08/22 09:57:38;;;;;;;6.95;6.35;;;;;;;28.09;56.24;64912.03;4935553;29;20283;-80
2022/08/22 10:00:28;;;;;;;8.05;7.22;;;;;;;28.00;54.83;64903.09;4935648;29;20222;-79
2022/08/22 10:03:04;;;;;;;7.15;6.45;;;;;;;27.74;55.01;64875.25;4936985;29;20411;-78
2022/08/22 10:05:39;;;;;;;7.38;6.63;;;;;;;27.45;55.19;64844.84;4934758;29;20225;-80
2022/08/22 10:08:16;;;;;;;7.60;6.90;;;;;;;27.89;56.39;64885.75;4922565;29;20249;-80
2022/08/22 10:11:00;;;;;;;7.35;6.65;;;;;;;28.19;56.01;64920.44;4916770;29;20262;-81
2022/08/22 10:13:43;;;;;;;8.95;7.43;;;;;;;28.38;54.84;64939.84;4916044;29;20205;-79
2022/08/22 10:16:33;;;;;;;6.85;6.22;;;;;;;28.48;52.33;64952.44;4915761;29;20222;-81
2022/08/22 10:19:11;;;;;;;8.65;6.63;;;;;;;27.27;54.41;64823.84;4916320;29;20210;-79
2022/08/22 10:21:42;;;;;;;8.48;6.60;;;;;;;26.74;56.33;64771.38;4915322;29;20222;-79
2022/08/22 10:24:22;;;;;;;8.52;7.30;;;;;;;26.75;58.00;64769.81;4918427;29;20191;-80
2022/08/22 10:26:53;;;;;;;7.35;6.57;;;;;;;26.33;59.56;64727.84;4914304;29;20225;-81
2022/08/22 10:29:48;;;;;;;7.93;7.03;;;;;;;26.09;59.06;64701.13;4916606;29;20218;-80
2022/08/22 10:32:29;;;;;;;10.90;7.32;;;;;;;25.29;62.57;64622.47;4915177;29;20222;-79
2022/08/22 10:35:02;;;;;;;7.50;6.80;;;;;;;25.24;63.98;64617.22;4913635;29;20202;-78
2022/08/22 10:37:36;;;;;;;8.95;7.70;;;;;;;25.53;65.93;64645.03;4917719;29;20428;-80
2022/08/22 10:40:08;;;;;;;9.20;7.53;;;;;;;25.59;65.48;64653.91;4915890;29;20190;-80
2022/08/22 10:42:41;;;;;;;8.02;7.32;;;;;;;25.64;65.44;64656.56;4914791;29;20214;-78
2022/08/22 10:45:20;;;;;;;8.82;7.55;;;;;;;25.44;66.12;64635.59;4913523;29;20209;-79
2022/08/22 10:48:26;;;;;;;10.82;8.38;;;;;;;25.28;68.12;64615.69;4914958;29;20580;-80
2022/08/22 10:51:03;;;;;;;8.82;7.78;;;;;;;25.73;67.88;64665.97;4897644;29;20226;-80
2022/08/22 10:53:45;;;;;;;9.07;7.68;;;;;;;25.88;66.02;64681.19;4916170;29;20201;-79
2022/08/22 10:56:19;;;;;;;9.77;7.63;;;;;;;26.02;65.85;64695.84;4915279;29;20240;-80
2022/08/22 10:58:54;;;;;;;8.40;7.60;;;;;;;26.14;65.03;64705.84;4915726;29;20487;-80
2022/08/22 11:01:27;;;;;;;11.40;8.35;;;;;;;25.94;66.60;64690.59;4917125;29;20265;-79
2022/08/22 11:04:03;;;;;;;13.63;8.38;;;;;;;25.82;66.88;64677.50;4915588;29;20261;-80
2022/08/22 11:06:44;;;;;;;12.75;8.00;;;;;;;25.75;67.69;64664.94;4918331;29;20241;-79
2022/08/22 11:09:23;;;;;;;12.13;8.40;;;;;;;26.00;66.33;64693.75;4933350;29;20217;-79
2022/08/22 11:12:01;;;;;;;10.77;8.30;;;;;;;25.54;65.82;64646.06;4932322;29;20225;-78
2022/08/22 11:15:04;;;;;;;8.50;7.72;;;;;;;25.34;69.89;64622.50;4934838;29;20221;-80
2022/08/22 11:17:49;;;;;;;9.77;8.05;;;;;;;25.73;68.26;64665.47;4934683;29;20240;-79
2022/08/22 11:20:21;;;;;;;8.43;7.40;;;;;;;25.81;66.97;64673.84;4934315;29;20206;-79
2022/08/22 11:23:10;;;;;;;9.48;8.13;;;;;;;26.05;64.74;64696.41;4935678;29;20197;-79
2022/08/22 11:25:50;;;;;;;10.65;8.40;;;;;;;26.37;63.42;64732.56;4933677;29;20209;-80
2022/08/22 11:28:36;;;;;;;9.15;7.35;;;;;;;26.44;62.63;64739.38;4933744;29;20641;-79
2022/08/22 11:31:12;;;;;;;8.77;7.95;;;;;;;26.49;62.53;64745.13;4936041;29;20311;-79
2022/08/22 11:33:48;;;;;;;9.55;8.60;;;;;;;26.42;62.17;64739.91;4935226;29;20212;-79
2022/08/22 11:36:36;;;;;;;8.07;7.28;;;;;;;26.29;63.25;64726.78;4933234;29;20256;-79
2022/08/22 11:39:16;;;;;;;9.00;8.10;;;;;;;26.04;63.61;64695.88;4933307;29;20201;-79
2022/08/22 11:41:51;;;;;;;11.50;7.47;;;;;;;26.16;62.26;64711.06;4933528;29;20506;-79
2022/08/22 11:44:24;;;;;;;8.57;7.75;;;;;;;26.49;61.87;64742.00;4935950;29;20209;-79
2022/08/22 11:46:56;;;;;;;9.57;7.93;;;;;;;26.58;61.14;64751.97;4935171;29;20222;-79
2022/08/22 11:49:30;;;;;;;9.10;8.13;;;;;;;26.84;62.11;64784.47;4932690;29;20233;-80
2022/08/22 11:52:13;;;;;;;8.50;7.68;;;;;;;27.11;62.67;64812.28;4934873;29;20259;-80
2022/08/22 11:54:59;;;;;;;9.27;7.90;;;;;;;27.04;59.43;64797.09;4934616;29;20223;-79
2022/08/22 11:57:33;;;;;;;12.02;8.52;;;;;;;26.88;60.09;64785.53;4933921;29;20209;-80
2022/08/22 12:00:21;;;;;;;9.18;7.95;;;;;;;26.81;59.56;64778.72;4935061;29;20205;-78
2022/08/22 12:03:07;;;;;;;10.43;8.15;;;;;;;26.99;61.69;64797.59;4932676;29;20204;-79
2022/08/22 12:05:43;;;;;;;10.20;7.35;;;;;;;27.00;59.65;64798.13;4934348;29;20217;-78
2022/08/22 12:08:14;;;;;;;9.00;8.20;;;;;;;26.83;60.67;64786.06;4937247;29;20228;-79
2022/08/22 12:10:53;;;;;;;14.40;8.38;;;;;;;26.83;60.75;64780.31;4936282;29;20304;-78
2022/08/22 12:13:36;;;;;;;8.52;7.72;;;;;;;27.07;59.41;64811.22;4939182;29;20253;-78
2022/08/22 12:16:14;;;;;;;8.77;7.88;;;;;;;26.92;58.89;64790.25;4938610;29;20221;-78
2022/08/22 12:18:51;;;;;;;10.02;7.85;;;;;;;27.09;58.75;64804.97;4936360;29;20193;-79
2022/08/22 12:21:48;;;;;;;9.55;7.18;;;;;;;27.13;57.34;64812.28;4936449;29;20225;-79
2022/08/22 12:24:39;;;;;;;9.00;7.30;;;;;;;27.47;60.17;64847.47;4937206;29;20205;-77